Time;durP1;ratioP1;P1;durP2;ratioP2;P2;SDS_P1;SDS_P2;PMS_P1;PMS_P2;Temp;Humidity;BMP_temperature;BMP_pressure;BME280_temperature;BME280_humidity;BME280_pressure;Samples;Min_cycle;Max_cycle;Signal;HPM_P1;HPM_P2
2021/10/03 00:01:37;;;;;;;22.50;11.43;;;6.80;99.90;;;;;;4422329;28;657898;-73
2021/10/03 00:04:25;;;;;;;19.13;11.73;;;6.80;99.90;;;;;;4430186;28;658573;-72
2021/10/03 00:07:12;;;;;;;23.33;11.90;;;6.80;99.90;;;;;;4395325;28;658434;-72
2021/10/03 00:10:01;;;;;;;23.00;12.00;;;6.80;99.90;;;;;;4420777;28;657769;-74
2021/10/03 00:12:48;;;;;;;24.63;12.20;;;6.80;99.90;;;;;;4431780;28;658922;-72
2021/10/03 00:15:36;;;;;;;21.73;11.63;;;6.80;99.90;;;;;;4407678;28;657676;-73
2021/10/03 00:18:25;;;;;;;27.37;13.33;;;6.80;99.90;;;;;;4426050;28;658114;-72
2021/10/03 00:21:13;;;;;;;22.67;12.43;;;6.70;99.90;;;;;;4402747;28;657695;-72
2021/10/03 00:24:00;;;;;;;20.43;11.47;;;6.70;99.90;;;;;;4410752;28;657913;-73
2021/10/03 00:26:48;;;;;;;26.20;13.13;;;6.60;99.90;;;;;;4414897;28;659525;-72
2021/10/03 00:29:36;;;;;;;25.43;12.27;;;6.60;99.90;;;;;;4392042;28;657822;-74
2021/10/03 00:32:23;;;;;;;23.83;12.37;;;6.70;99.90;;;;;;4426586;28;657982;-71
2021/10/03 00:35:12;;;;;;;23.53;12.30;;;6.60;99.90;;;;;;4418719;28;657532;-73
2021/10/03 00:38:02;;;;;;;27.33;12.87;;;6.60;99.90;;;;;;4438766;28;658836;-72
2021/10/03 00:40:49;;;;;;;22.80;11.83;;;6.60;99.90;;;;;;4421172;28;658010;-72
2021/10/03 00:43:37;;;;;;;25.33;12.17;;;6.60;99.90;;;;;;4418507;28;657566;-71
2021/10/03 00:46:24;;;;;;;20.97;11.87;;;6.60;99.90;;;;;;4444948;28;657395;-72
2021/10/03 00:49:12;;;;;;;20.10;11.70;;;6.50;99.90;;;;;;4409215;28;657891;-72
2021/10/03 00:52:01;;;;;;;23.73;11.82;;;6.60;99.90;;;;;;4424623;28;657621;-71
2021/10/03 00:54:48;;;;;;;20.97;11.83;;;6.60;99.90;;;;;;4408303;28;658548;-71
2021/10/03 00:57:36;;;;;;;27.17;11.47;;;6.60;99.90;;;;;;4417482;28;657259;-73
2021/10/03 01:00:26;;;;;;;30.97;11.97;;;6.60;99.90;;;;;;4442007;28;658199;-71
2021/10/03 01:03:13;;;;;;;23.47;11.47;;;6.60;99.90;;;;;;4408409;28;657878;-72
2021/10/03 01:06:01;;;;;;;18.73;11.13;;;6.60;99.90;;;;;;4407475;28;657709;-73
2021/10/03 01:08:50;;;;;;;21.87;11.83;;;6.50;99.90;;;;;;4429571;28;658577;-72
2021/10/03 01:11:37;;;;;;;23.73;12.33;;;6.50;99.90;;;;;;4412306;28;659009;-71
2021/10/03 01:14:25;;;;;;;21.27;11.90;;;6.50;99.90;;;;;;4440421;28;657427;-71
2021/10/03 01:17:12;;;;;;;21.93;12.07;;;6.50;99.90;;;;;;4416733;28;659246;-71
2021/10/03 01:20:00;;;;;;;21.88;11.90;;;6.50;99.90;;;;;;4432057;28;657301;-72
2021/10/03 01:22:49;;;;;;;20.80;11.87;;;6.50;99.90;;;;;;4421628;28;658755;-72
2021/10/03 01:25:37;;;;;;;23.70;12.97;;;6.40;99.90;;;;;;4406536;28;658017;-72
2021/10/03 01:28:25;;;;;;;23.57;11.97;;;6.40;99.90;;;;;;4430849;28;657833;-74
2021/10/03 01:31:13;;;;;;;24.03;11.97;;;6.40;99.90;;;;;;4440101;28;658999;-71
2021/10/03 01:34:01;;;;;;;21.37;11.57;;;6.40;99.90;;;;;;4402038;28;657917;-73
2021/10/03 01:36:49;;;;;;;24.63;11.63;;;6.40;99.90;;;;;;4411516;28;657996;-72
2021/10/03 01:39:39;;;;;;;21.50;12.13;;;6.40;99.90;;;;;;4394286;28;659047;-72
2021/10/03 01:42:26;;;;;;;26.27;13.13;;;6.40;99.90;;;;;;4395822;28;657537;-72
2021/10/03 01:45:15;;;;;;;21.07;12.03;;;6.40;99.90;;;;;;4416798;28;657896;-72
2021/10/03 01:48:08;;;;;;;23.13;12.50;;;6.30;99.90;;;;;;4397134;28;659107;-72
2021/10/03 01:50:56;;;;;;;19.97;11.57;;;6.30;99.90;;;;;;4395782;28;657566;-74
2021/10/03 01:53:45;;;;;;;24.57;11.70;;;6.30;99.90;;;;;;4420826;28;658165;-71
2021/10/03 01:56:36;;;;;;;22.33;12.27;;;6.30;99.90;;;;;;4399440;28;658788;-72
2021/10/03 01:59:23;;;;;;;21.90;11.07;;;6.30;99.90;;;;;;4391707;28;658015;-72
2021/10/03 02:02:11;;;;;;;23.03;11.47;;;6.30;99.90;;;;;;4379675;28;657529;-73
2021/10/03 02:04:58;;;;;;;25.73;12.40;;;6.20;99.90;;;;;;4414949;28;658050;-72
2021/10/03 02:07:46;;;;;;;20.07;11.47;;;6.10;99.90;;;;;;4401132;28;657799;-73
2021/10/03 02:10:33;;;;;;;28.03;11.70;;;6.10;99.90;;;;;;4413413;28;658537;-72
2021/10/03 02:13:23;;;;;;;20.33;10.90;;;6.10;99.90;;;;;;4402286;28;658127;-73
2021/10/03 02:16:11;;;;;;;21.33;11.40;;;6.10;99.90;;;;;;4393584;28;657660;-73
2021/10/03 02:18:58;;;;;;;20.37;10.53;;;6.10;99.90;;;;;;4402331;28;658609;-71
2021/10/03 02:21:47;;;;;;;20.17;11.23;;;6.10;99.90;;;;;;4397149;28;657574;-73
2021/10/03 02:24:35;;;;;;;18.63;11.07;;;6.10;99.90;;;;;;4416067;28;657444;-73
2021/10/03 02:27:24;;;;;;;20.17;10.70;;;6.00;99.90;;;;;;4413594;28;659321;-71
2021/10/03 02:30:14;;;;;;;20.27;11.20;;;6.00;99.90;;;;;;4399388;28;657864;-72
2021/10/03 02:33:01;;;;;;;20.63;10.83;;;6.00;99.90;;;;;;4400014;28;657314;-73
2021/10/03 02:35:49;;;;;;;19.65;10.82;;;6.00;99.90;;;;;;4418649;28;658765;-71
2021/10/03 02:38:37;;;;;;;20.17;11.50;;;6.00;99.90;;;;;;4407404;28;658040;-72
2021/10/03 02:41:25;;;;;;;27.15;11.82;;;6.00;99.90;;;;;;4407906;28;657705;-72
2021/10/03 02:44:12;;;;;;;20.23;11.00;;;6.10;99.90;;;;;;4396268;28;659085;-72
2021/10/03 02:47:02;;;;;;;20.37;11.40;;;6.20;99.90;;;;;;4411004;28;657206;-72
2021/10/03 02:49:50;;;;;;;23.43;11.83;;;6.20;99.90;;;;;;4402178;28;657529;-72
2021/10/03 02:52:37;;;;;;;21.80;12.53;;;6.20;99.90;;;;;;4395513;28;658729;-72
2021/10/03 02:55:25;;;;;;;23.17;10.70;;;6.30;99.90;;;;;;4411350;28;658053;-71
2021/10/03 02:58:12;;;;;;;19.13;10.63;;;6.30;99.90;;;;;;4393543;28;658363;-72
2021/10/03 03:01:00;;;;;;;19.83;10.03;;;6.30;99.90;;;;;;4417029;28;658383;-71
2021/10/03 03:03:49;;;;;;;21.50;10.90;;;6.30;99.90;;;;;;4397743;28;658557;-72
2021/10/03 03:06:37;;;;;;;24.63;11.63;;;6.30;99.90;;;;;;4384062;28;658133;-72
2021/10/03 03:09:25;;;;;;;26.77;12.10;;;6.30;99.90;;;;;;4418472;28;658066;-72
2021/10/03 03:12:12;;;;;;;20.43;10.57;;;6.40;99.90;;;;;;4382173;28;658611;-72
2021/10/03 03:15:00;;;;;;;21.20;11.27;;;6.30;99.90;;;;;;4394213;28;657790;-72
2021/10/03 03:17:47;;;;;;;22.63;11.30;;;6.30;99.90;;;;;;4382759;28;658185;-71
2021/10/03 03:20:37;;;;;;;20.17;11.40;;;6.40;99.90;;;;;;4407054;28;657454;-73
2021/10/03 03:23:25;;;;;;;23.17;11.23;;;6.40;99.90;;;;;;4410479;28;657771;-71
2021/10/03 03:26:13;;;;;;;20.57;10.40;;;6.40;99.90;;;;;;4371580;28;658295;-71
2021/10/03 03:29:01;;;;;;;19.27;10.37;;;6.40;99.90;;;;;;4392075;28;657697;-72
2021/10/03 03:31:49;;;;;;;20.70;10.90;;;6.50;99.90;;;;;;4394034;28;658489;-72
2021/10/03 03:34:37;;;;;;;22.40;11.47;;;6.50;99.90;;;;;;4381931;28;657718;-72
2021/10/03 03:37:26;;;;;;;18.83;10.30;;;6.50;99.90;;;;;;4411066;28;658275;-72
2021/10/03 03:40:15;;;;;;;21.07;11.87;;;6.50;99.90;;;;;;4386128;28;658224;-72
2021/10/03 03:43:05;;;;;;;22.63;11.50;;;6.50;99.90;;;;;;4383144;28;658404;-72
2021/10/03 03:45:52;;;;;;;19.63;11.27;;;6.50;99.90;;;;;;4328354;28;658188;-72
2021/10/03 03:48:41;;;;;;;21.83;10.77;;;6.50;99.90;;;;;;4401248;28;657655;-71
2021/10/03 03:51:28;;;;;;;20.33;10.60;;;6.50;99.90;;;;;;4378024;28;658835;-72
2021/10/03 03:54:17;;;;;;;20.67;10.43;;;6.40;99.90;;;;;;4362996;28;658017;-72
2021/10/03 03:57:06;;;;;;;17.90;10.43;;;6.40;99.90;;;;;;4408920;28;657950;-72
2021/10/03 03:59:54;;;;;;;19.73;10.27;;;6.40;99.90;;;;;;4403602;28;658152;-71
2021/10/03 04:02:42;;;;;;;19.20;10.33;;;6.40;99.90;;;;;;4375353;28;658682;-73
2021/10/03 04:05:30;;;;;;;17.03;10.13;;;6.40;99.90;;;;;;4376621;28;658024;-71
2021/10/03 04:08:19;;;;;;;16.07;9.77;;;6.30;99.90;;;;;;4386266;28;659068;-72
2021/10/03 04:11:11;;;;;;;18.90;10.37;;;6.40;99.90;;;;;;4386580;28;657652;-72
2021/10/03 04:13:59;;;;;;;17.43;10.17;;;6.30;99.90;;;;;;4350054;28;658718;-71
2021/10/03 04:16:46;;;;;;;20.97;10.53;;;6.30;99.90;;;;;;4362376;28;658222;-72
2021/10/03 04:19:34;;;;;;;18.60;9.90;;;6.30;99.90;;;;;;4390130;28;658118;-72
2021/10/03 04:22:22;;;;;;;16.85;10.65;;;6.20;99.90;;;;;;4375703;28;656649;-71
2021/10/03 04:25:10;;;;;;;20.70;11.10;;;6.20;99.90;;;;;;4384395;28;657889;-72
2021/10/03 04:27:59;;;;;;;20.40;10.73;;;6.10;99.90;;;;;;4361087;28;657887;-71
2021/10/03 04:30:47;;;;;;;19.53;11.07;;;6.10;99.90;;;;;;4381270;28;658474;-72
2021/10/03 04:33:44;;;;;;;21.37;11.20;;;6.10;99.90;;;;;;4354067;28;658488;-71
2021/10/03 04:36:32;;;;;;;21.53;10.50;;;6.00;99.90;;;;;;4374226;28;657929;-72
2021/10/03 04:39:19;;;;;;;19.90;10.90;;;6.00;99.90;;;;;;4408120;28;657834;-72
2021/10/03 04:42:08;;;;;;;26.03;13.73;;;6.00;99.90;;;;;;4380128;28;657784;-72
2021/10/03 04:44:57;;;;;;;29.37;14.70;;;5.90;99.90;;;;;;4389015;28;657710;-72
2021/10/03 04:47:45;;;;;;;27.30;12.67;;;6.00;99.90;;;;;;4384504;28;658488;-71
2021/10/03 04:50:35;;;;;;;22.73;11.43;;;5.90;99.90;;;;;;4373440;28;658209;-72
2021/10/03 04:53:22;;;;;;;24.47;10.40;;;5.80;99.90;;;;;;4330830;28;659474;-71
2021/10/03 04:56:10;;;;;;;21.60;11.03;;;5.90;99.90;;;;;;4402098;28;657048;-73
2021/10/03 04:58:58;;;;;;;18.73;10.43;;;5.90;99.90;;;;;;4344616;28;658290;-71
2021/10/03 05:01:47;;;;;;;21.47;10.90;;;5.90;99.90;;;;;;4368242;28;657703;-72
2021/10/03 05:04:36;;;;;;;17.03;10.70;;;5.90;99.90;;;;;;4403976;28;657729;-72
2021/10/03 05:07:23;;;;;;;20.17;10.93;;;5.90;99.90;;;;;;4384318;28;659233;-71
2021/10/03 05:10:11;;;;;;;17.97;10.67;;;6.00;99.90;;;;;;4405322;28;657890;-71
2021/10/03 05:12:59;;;;;;;19.37;10.47;;;5.90;99.90;;;;;;4380761;28;659510;-72
2021/10/03 05:15:46;;;;;;;20.03;10.27;;;6.00;99.90;;;;;;4381367;28;658032;-72
2021/10/03 05:18:37;;;;;;;25.83;10.63;;;6.00;99.90;;;;;;4411214;28;658858;-71
2021/10/03 05:21:24;;;;;;;22.40;10.53;;;6.20;99.90;;;;;;4377772;28;657755;-72
2021/10/03 05:24:12;;;;;;;19.10;10.90;;;6.30;99.90;;;;;;4388043;28;657997;-72
2021/10/03 05:27:00;;;;;;;20.85;11.20;;;6.30;99.90;;;;;;4407245;28;658019;-71
2021/10/03 05:29:48;;;;;;;20.50;10.70;;;6.40;99.90;;;;;;4396427;28;658071;-71
2021/10/03 05:32:36;;;;;;;18.85;9.90;;;6.50;99.90;;;;;;4371841;28;657603;-71
2021/10/03 05:35:24;;;;;;;17.00;9.83;;;6.60;99.90;;;;;;4394888;28;657010;-68
2021/10/03 05:38:12;;;;;;;18.23;10.50;;;6.50;99.90;;;;;;4402528;28;656729;-70
2021/10/03 05:40:59;;;;;;;25.27;9.87;;;6.50;99.90;;;;;;4411791;28;658490;-70
2021/10/03 05:43:47;;;;;;;17.70;10.87;;;6.60;99.90;;;;;;4379715;28;656818;-70
2021/10/03 05:46:35;;;;;;;18.33;10.27;;;6.70;99.90;;;;;;4415551;28;657604;-70
2021/10/03 05:49:22;;;;;;;23.30;11.73;;;6.90;99.90;;;;;;4398015;28;658806;-69
2021/10/03 05:52:11;;;;;;;26.00;12.13;;;7.00;99.90;;;;;;4432147;28;657189;-70
2021/10/03 05:54:59;;;;;;;22.10;12.13;;;7.30;99.90;;;;;;4410133;28;659185;-70
2021/10/03 05:57:46;;;;;;;21.10;11.70;;;7.50;99.90;;;;;;4386928;28;657561;-71
2021/10/03 06:00:34;;;;;;;21.00;12.40;;;7.70;99.90;;;;;;4404676;28;659294;-71
2021/10/03 06:03:22;;;;;;;19.57;11.77;;;8.00;99.90;;;;;;4394390;28;658350;-70
2021/10/03 06:06:09;;;;;;;21.20;11.63;;;8.10;99.90;;;;;;4402959;28;658436;-70
2021/10/03 06:08:59;;;;;;;23.07;11.67;;;8.30;99.90;;;;;;4389610;28;658374;-70
2021/10/03 06:11:46;;;;;;;19.93;11.23;;;8.50;99.90;;;;;;4350544;28;657666;-71
2021/10/03 06:14:34;;;;;;;26.97;12.80;;;8.70;99.90;;;;;;4370970;28;658375;-70
2021/10/03 06:17:21;;;;;;;18.95;11.57;;;8.90;99.90;;;;;;4379072;28;658501;-71
2021/10/03 06:20:11;;;;;;;28.97;12.63;;;9.10;99.90;;;;;;4393993;28;658260;-71
2021/10/03 06:22:59;;;;;;;18.73;12.07;;;9.20;99.90;;;;;;4369977;28;658924;-71
2021/10/03 06:25:48;;;;;;;20.87;11.77;;;9.40;99.90;;;;;;4343409;28;657358;-72
2021/10/03 06:28:36;;;;;;;26.48;12.48;;;9.70;99.90;;;;;;4396825;28;657930;-73
2021/10/03 06:31:23;;;;;;;32.50;14.60;;;9.80;99.90;;;;;;4356019;28;657685;-71
2021/10/03 06:34:11;;;;;;;21.67;12.97;;;10.00;99.90;;;;;;4353676;28;657893;-72
2021/10/03 06:36:58;;;;;;;28.40;15.30;;;10.20;99.90;;;;;;4426256;28;659287;-71
2021/10/03 06:39:46;;;;;;;27.47;14.17;;;10.40;99.90;;;;;;4376055;28;658850;-71
2021/10/03 06:42:35;;;;;;;39.83;18.67;;;10.60;99.90;;;;;;4421310;28;659557;-71
2021/10/03 06:45:23;;;;;;;32.70;16.80;;;10.80;99.90;;;;;;4403702;28;660029;-71
2021/10/03 06:48:12;;;;;;;27.58;14.77;;;11.00;99.90;;;;;;4400904;28;658646;-70
2021/10/03 06:51:00;;;;;;;33.03;17.07;;;11.30;99.90;;;;;;4425465;28;657852;-71
2021/10/03 06:53:47;;;;;;;29.93;15.80;;;11.50;99.90;;;;;;4407991;28;659894;-70
2021/10/03 06:56:35;;;;;;;24.83;14.13;;;11.70;99.90;;;;;;4423039;28;658363;-70
2021/10/03 06:59:24;;;;;;;25.13;13.43;;;11.90;99.90;;;;;;4412808;28;659645;-70
2021/10/03 07:02:16;;;;;;;22.03;12.97;;;12.00;99.90;;;;;;4408988;28;658576;-71
2021/10/03 07:05:04;;;;;;;20.98;12.85;;;12.20;99.90;;;;;;4404668;28;659269;-70
2021/10/03 07:07:52;;;;;;;22.13;12.30;;;12.40;99.90;;;;;;4393589;28;660127;-71
2021/10/03 07:10:39;;;;;;;21.40;12.37;;;12.60;99.90;;;;;;4429146;28;658907;-70
2021/10/03 07:13:27;;;;;;;28.00;15.53;;;12.80;99.90;;;;;;4397273;28;658740;-70
2021/10/03 07:16:17;;;;;;;25.67;13.00;;;13.10;99.90;;;;;;4424093;28;658182;-70
2021/10/03 07:19:04;;;;;;;19.23;11.67;;;13.30;99.90;;;;;;4406269;28;659075;-70
2021/10/03 07:21:52;;;;;;;17.40;10.63;;;13.60;99.90;;;;;;4412167;28;659152;-70
2021/10/03 07:24:39;;;;;;;19.03;10.63;;;13.70;99.90;;;;;;4440757;28;659080;-70
2021/10/03 07:27:27;;;;;;;20.70;10.13;;;13.90;99.90;;;;;;4411850;28;659737;-70
2021/10/03 07:30:15;;;;;;;19.20;10.03;;;14.20;99.90;;;;;;4427919;28;657718;-71
2021/10/03 07:33:04;;;;;;;17.63;10.30;;;14.40;91.80;;;;;;4376081;28;659774;-70
2021/10/03 07:35:52;;;;;;;17.23;9.90;;;14.50;1.00;;;;;;4401681;28;658929;-70
2021/10/03 07:38:40;;;;;;;15.10;9.07;;;14.60;1.00;;;;;;4413955;28;657423;-70
2021/10/03 07:41:27;;;;;;;18.47;9.43;;;14.90;1.00;;;;;;4398041;28;658270;-71
2021/10/03 07:44:15;;;;;;;15.80;8.50;;;15.00;97.40;;;;;;4433773;28;657746;-70
2021/10/03 07:47:03;;;;;;;14.77;8.87;;;15.30;23.50;;;;;;4391415;28;659147;-70
2021/10/03 07:49:52;;;;;;;14.60;8.80;;;15.50;1.00;;;;;;4383949;28;657733;-72
2021/10/03 07:52:40;;;;;;;16.83;8.77;;;15.70;15.70;;;;;;4416519;28;656350;-70
2021/10/03 07:55:29;;;;;;;17.40;9.20;;;15.90;99.90;;;;;;4402053;28;658788;-70
2021/10/03 07:58:17;;;;;;;17.80;8.73;;;16.00;99.90;;;;;;4403496;28;657686;-70
2021/10/03 08:01:04;;;;;;;13.57;8.17;;;16.20;53.50;;;;;;4426612;28;657326;-70
2021/10/03 08:03:52;;;;;;;20.07;8.73;;;16.40;10.70;;;;;;4404468;28;658019;-70
2021/10/03 08:06:41;;;;;;;12.43;7.50;;;16.50;1.00;;;;;;4425599;28;657841;-70
2021/10/03 08:09:28;;;;;;;16.40;8.63;;;16.50;1.00;;;;;;4410806;28;657438;-71
2021/10/03 08:12:16;;;;;;;12.90;8.60;;;16.50;1.00;;;;;;4403819;28;656957;-71
2021/10/03 08:15:03;;;;;;;14.70;7.93;;;16.40;1.00;;;;;;4424734;28;657303;-71
2021/10/03 08:17:51;;;;;;;17.80;8.80;;;16.20;1.00;;;;;;4412548;28;656665;-71
2021/10/03 08:20:40;;;;;;;16.37;9.27;;;16.20;1.00;;;;;;4428295;28;657131;-71
2021/10/03 08:23:29;;;;;;;16.70;8.67;;;16.40;1.00;;;;;;4409616;28;656803;-71
2021/10/03 08:26:17;;;;;;;27.40;14.00;;;16.60;1.00;;;;;;4413057;28;656333;-71
2021/10/03 08:29:04;;;;;;;26.87;12.43;;;16.90;1.00;;;;;;4422076;28;658292;-72
2021/10/03 08:31:52;;;;;;;21.67;10.73;;;16.90;1.00;;;;;;4396320;28;658109;-72
2021/10/03 08:34:42;;;;;;;17.57;8.80;;;17.10;1.00;;;;;;4411709;28;658136;-71
2021/10/03 08:37:29;;;;;;;15.97;8.43;;;17.30;1.00;;;;;;4404080;28;657083;-71
2021/10/03 08:40:18;;;;;;;15.27;8.52;;;17.70;1.00;;;;;;4369168;28;656940;-71
2021/10/03 08:43:08;;;;;;;15.77;8.23;;;18.10;99.90;;;;;;4399409;28;656843;-72
2021/10/03 08:45:57;;;;;;;14.17;8.07;;;18.40;99.90;;;;;;4407278;28;657682;-73
2021/10/03 08:48:45;;;;;;;13.83;7.53;;;18.50;38.70;;;;;;4426196;28;657748;-71
2021/10/03 08:51:32;;;;;;;15.10;8.40;;;18.70;1.00;;;;;;4394888;28;659030;-71
2021/10/03 08:54:20;;;;;;;12.47;7.23;;;19.00;1.00;;;;;;4423797;28;656258;-71
2021/10/03 08:57:09;;;;;;;13.00;7.00;;;19.30;1.00;;;;;;4400662;28;657494;-72
2021/10/03 09:00:05;;;;;;;15.33;7.60;;;19.50;99.90;;;;;;4412453;28;656856;-72
2021/10/03 09:02:57;;;;;;;10.73;6.93;;;19.80;1.00;;;;;;4379180;28;658136;-71
2021/10/03 09:06:20;;;;;;;10.93;6.70;;;19.90;99.90;;;;;;4425147;28;656740;-72
2021/10/03 09:09:08;;;;;;;10.23;6.43;;;20.30;1.00;;;;;;4409885;28;657941;-72
2021/10/03 09:11:57;;;;;;;13.45;7.07;;;20.40;1.00;;;;;;4404065;28;656888;-73
2021/10/03 09:14:46;;;;;;;11.63;6.60;;;20.50;99.90;;;;;;4431510;28;656309;-71
2021/10/03 09:17:34;;;;;;;10.67;6.50;;;20.80;1.00;;;;;;4403203;28;658209;-72
2021/10/03 09:20:23;;;;;;;7.80;5.73;;;21.00;1.00;;;;;;4390965;28;656965;-72
2021/10/03 09:23:12;;;;;;;11.87;5.57;;;21.10;1.00;;;;;;4407983;28;655899;-73
2021/10/03 09:26:01;;;;;;;11.10;5.83;;;21.20;99.90;;;;;;4447641;28;656370;-72
2021/10/03 09:28:49;;;;;;;11.27;5.60;;;21.30;99.90;;;;;;4404245;28;658717;-72
2021/10/03 09:31:39;;;;;;;8.63;5.60;;;21.50;1.00;;;;;;4395136;28;657846;-73
2021/10/03 09:34:27;;;;;;;14.00;6.03;;;21.60;99.90;;;;;;4392966;28;656272;-71
2021/10/03 09:37:23;;;;;;;8.83;5.30;;;21.60;99.90;;;;;;4364608;28;657738;-72
2021/10/03 09:40:13;;;;;;;13.77;6.37;;;21.70;99.90;;;;;;4386938;28;656638;-72
2021/10/03 09:43:02;;;;;;;11.17;6.33;;;21.80;99.90;;;;;;4391314;28;657997;-72
2021/10/03 09:45:50;;;;;;;8.27;5.50;;;21.70;99.90;;;;;;4416019;28;657664;-72
2021/10/03 09:48:49;;;;;;;9.37;6.03;;;21.80;99.90;;;;;;4357594;28;657270;-72
2021/10/03 09:51:37;;;;;;;12.60;6.00;;;21.70;99.90;;;;;;4366213;28;656572;-73
2021/10/03 09:54:27;;;;;;;12.67;6.47;;;21.40;99.90;;;;;;4393673;28;658063;-71
2021/10/03 09:57:16;;;;;;;12.57;6.47;;;21.60;99.90;;;;;;4374414;28;657594;-72
2021/10/03 10:00:04;;;;;;;12.93;6.57;;;21.70;99.90;;;;;;4401636;28;658860;-71
2021/10/03 10:02:52;;;;;;;10.27;6.20;;;21.80;99.90;;;;;;4389050;28;659338;-71
2021/10/03 10:05:41;;;;;;;11.13;6.20;;;22.10;12.10;;;;;;4424247;28;657744;-71
2021/10/03 10:08:29;;;;;;;11.93;6.00;;;22.00;2.60;;;;;;4398129;28;658439;-71
2021/10/03 10:11:18;;;;;;;11.93;5.90;;;22.40;1.00;;;;;;4395793;28;656981;-71
2021/10/03 10:14:06;;;;;;;11.23;6.07;;;22.50;1.00;;;;;;4402046;28;656270;-72
2021/10/03 10:16:57;;;;;;;9.67;6.60;;;22.60;1.00;;;;;;4417347;28;657209;-72
2021/10/03 10:19:46;;;;;;;12.57;6.40;;;22.90;1.00;;;;;;4408503;28;655273;-73
2021/10/03 10:22:39;;;;;;;8.73;6.33;;;23.10;1.00;;;;;;4417744;28;657109;-71
2021/10/03 10:25:52;;;;;;;12.60;7.30;;;23.20;1.00;;;;;;4403123;28;655584;-72
2021/10/03 10:28:39;;;;;;;12.40;5.83;;;23.40;1.00;;;;;;4324613;28;656420;-71
2021/10/03 10:31:29;;;;;;;10.40;5.60;;;23.30;1.00;;;;;;4323818;28;656794;-71
2021/10/03 10:34:18;;;;;;;8.93;5.90;;;23.10;1.00;;;;;;4342729;28;656955;-71
2021/10/03 10:37:06;;;;;;;12.30;5.90;;;23.00;1.00;;;;;;4355549;28;655968;-71
2021/10/03 10:40:09;;;;;;;7.33;4.97;;;23.20;99.90;;;;;;4378418;28;657209;-72
2021/10/03 10:42:57;;;;;;;9.73;5.67;;;23.10;99.90;;;;;;4349437;28;656422;-72
2021/10/03 10:45:46;;;;;;;7.60;4.93;;;23.10;99.90;;;;;;4377704;28;656550;-71
2021/10/03 10:48:34;;;;;;;9.23;5.90;;;23.00;99.90;;;;;;4350729;28;656913;-71
2021/10/03 10:51:23;;;;;;;9.87;5.43;;;22.80;99.90;;;;;;4309113;28;657106;-72
2021/10/03 10:54:14;;;;;;;10.70;6.13;;;22.70;99.90;;;;;;4335612;28;656746;-73
2021/10/03 10:57:10;;;;;;;13.03;6.53;;;22.90;99.90;;;;;;4322218;28;657979;-72
2021/10/03 11:00:18;;;;;;;12.67;6.20;;;23.10;99.90;;;;;;4333153;28;657963;-71
2021/10/03 11:03:08;;;;;;;11.23;6.00;;;23.40;99.90;;;;;;4333705;28;657841;-72
2021/10/03 11:05:55;;;;;;;10.57;6.20;;;23.70;99.90;;;;;;4352674;28;657892;-72
2021/10/03 11:09:04;;;;;;;10.73;6.37;;;24.00;99.90;;;;;;4405738;28;658463;-72
2021/10/03 11:12:09;;;;;;;9.77;6.43;;;24.30;99.90;;;;;;4410992;28;658007;-72
2021/10/03 11:15:22;;;;;;;10.90;6.03;;;24.50;99.90;;;;;;4402788;28;656928;-72
2021/10/03 11:18:10;;;;;;;11.90;5.97;;;24.60;99.90;;;;;;4402757;28;658073;-72
2021/10/03 11:20:58;;;;;;;10.75;5.15;;;25.00;99.90;;;;;;4390842;28;658709;-72
2021/10/03 11:23:45;;;;;;;10.05;5.55;;;25.30;99.90;;;;;;4399049;28;657847;-71
2021/10/03 11:26:44;;;;;;;10.20;5.70;;;25.40;99.90;;;;;;4408615;28;659229;-72
2021/10/03 11:29:34;;;;;;;9.63;5.40;;;25.80;99.90;;;;;;4388316;28;657851;-72
2021/10/03 11:32:23;;;;;;;8.23;5.50;;;25.90;99.90;;;;;;4398709;28;657944;-72
2021/10/03 11:35:12;;;;;;;7.85;4.90;;;25.60;99.90;;;;;;4399394;28;657100;-71
2021/10/03 11:38:01;;;;;;;8.38;4.85;;;25.80;99.90;;;;;;4427060;28;656811;-71
2021/10/03 11:40:49;;;;;;;10.32;4.85;;;26.20;99.90;;;;;;4400122;28;657757;-72
2021/10/03 11:43:37;;;;;;;7.63;4.90;;;26.50;99.90;;;;;;4391302;28;657265;-72
2021/10/03 11:46:26;;;;;;;7.22;4.88;;;26.50;43.50;;;;;;4405961;28;656217;-72
2021/10/03 11:49:25;;;;;;;11.10;4.90;;;26.30;25.40;;;;;;4393881;28;656670;-72
2021/10/03 11:52:15;;;;;;;6.00;4.57;;;26.60;12.90;;;;;;4372584;28;658013;-73
2021/10/03 11:55:04;;;;;;;7.28;4.80;;;26.50;1.00;;;;;;4397608;28;657374;-72
2021/10/03 11:57:54;;;;;;;16.75;5.00;;;26.60;65.50;;;;;;4372081;28;655728;-72
2021/10/03 12:00:49;;;;;;;11.30;5.38;;;26.80;51.60;;;;;;4408272;28;657560;-73
2021/10/03 12:03:49;;;;;;;8.93;4.90;;;27.10;43.70;;;;;;4357663;28;658317;-72
2021/10/03 12:06:37;;;;;;;8.43;4.40;;;27.00;54.50;;;;;;4381671;28;656256;-72
2021/10/03 12:09:28;;;;;;;7.40;4.50;;;27.20;1.00;;;;;;4420876;28;656840;-72
2021/10/03 12:12:16;;;;;;;11.95;4.20;;;27.10;1.00;;;;;;4363367;28;655898;-72
2021/10/03 12:15:03;;;;;;;9.88;4.32;;;27.30;1.00;;;;;;4422445;28;657252;-72
2021/10/03 12:17:52;;;;;;;7.23;4.20;;;27.70;1.00;;;;;;4397836;28;655781;-72
2021/10/03 12:20:57;;;;;;;7.68;4.32;;;28.10;1.00;;;;;;4434760;28;655491;-72
2021/10/03 12:23:53;;;;;;;6.97;4.22;;;28.70;1.00;;;;;;4371665;28;655452;-72
2021/10/03 12:26:42;;;;;;;6.00;4.40;;;29.10;1.00;;;;;;4393282;28;655993;-73
2021/10/03 12:29:32;;;;;;;7.28;4.15;;;29.20;1.00;;;;;;4411411;28;656404;-72
2021/10/03 12:32:23;;;;;;;9.15;4.30;;;28.60;1.00;;;;;;4384242;28;655718;-73
2021/10/03 12:35:11;;;;;;;7.88;3.97;;;28.30;1.00;;;;;;4403107;28;655369;-72
2021/10/03 12:38:00;;;;;;;9.13;3.92;;;28.20;1.00;;;;;;4419714;28;656595;-72
2021/10/03 12:40:49;;;;;;;5.00;3.58;;;28.10;1.00;;;;;;4375770;28;655236;-72
2021/10/03 12:43:48;;;;;;;5.60;3.60;;;27.60;1.00;;;;;;4410480;28;656199;-72
2021/10/03 12:46:36;;;;;;;4.97;3.80;;;27.60;1.00;;;;;;4400103;28;655715;-72
2021/10/03 12:49:24;;;;;;;7.75;3.50;;;27.60;1.00;;;;;;4427351;28;656112;-72
2021/10/03 12:52:12;;;;;;;9.52;3.35;;;27.80;1.00;;;;;;4398634;28;655759;-72
2021/10/03 12:55:01;;;;;;;4.13;3.38;;;27.90;1.00;;;;;;4432519;28;655402;-72
2021/10/03 12:57:49;;;;;;;9.30;3.85;;;28.30;1.00;;;;;;4413354;28;656316;-71
2021/10/03 13:00:38;;;;;;;11.40;3.78;;;28.40;1.00;;;;;;4386591;28;655727;-72
2021/10/03 13:03:26;;;;;;;10.23;3.63;;;28.60;1.00;;;;;;4381227;28;657230;-73
2021/10/03 13:06:13;;;;;;;6.72;3.58;;;28.70;1.00;;;;;;4434727;28;657450;-72
2021/10/03 13:09:01;;;;;;;6.95;4.10;;;28.60;1.00;;;;;;4404414;28;656084;-73
2021/10/03 13:11:50;;;;;;;9.20;3.65;;;28.80;1.00;;;;;;4425273;28;655807;-72
2021/10/03 13:14:38;;;;;;;5.10;3.65;;;29.10;1.00;;;;;;4403466;28;656833;-72
2021/10/03 13:17:26;;;;;;;8.13;4.20;;;29.20;1.00;;;;;;4395580;28;656028;-73
2021/10/03 13:20:13;;;;;;;7.72;3.92;;;28.60;1.00;;;;;;4440864;28;656670;-71
2021/10/03 13:23:01;;;;;;;7.32;3.53;;;28.70;1.00;;;;;;4409852;28;655807;-71
2021/10/03 13:25:49;;;;;;;8.00;4.00;;;29.00;1.00;;;;;;4416976;28;655621;-72
2021/10/03 13:28:38;;;;;;;6.82;4.10;;;29.20;1.00;;;;;;4417251;28;655185;-72
2021/10/03 13:31:26;;;;;;;9.57;3.70;;;29.80;1.00;;;;;;4410434;28;655868;-73
2021/10/03 13:34:14;;;;;;;8.13;4.07;;;30.30;1.00;;;;;;4413355;28;656229;-71
2021/10/03 13:37:02;;;;;;;10.17;4.37;;;31.30;1.00;;;;;;4394095;28;655713;-72
2021/10/03 13:39:49;;;;;;;9.38;3.90;;;32.20;1.00;;;;;;4395199;28;656423;-72
2021/10/03 13:42:37;;;;;;;6.70;4.20;;;32.50;1.00;;;;;;4384235;28;656298;-72
2021/10/03 13:45:26;;;;;;;6.03;3.45;;;32.30;1.00;;;;;;4415140;28;655826;-72
2021/10/03 13:48:14;;;;;;;7.53;3.70;;;32.90;1.00;;;;;;4388329;28;655705;-72
2021/10/03 13:51:02;;;;;;;5.68;3.72;;;32.90;1.00;;;;;;4388961;28;655982;-72
2021/10/03 13:53:49;;;;;;;9.25;4.07;;;32.30;1.00;;;;;;4406951;28;655528;-72
2021/10/03 13:56:38;;;;;;;5.45;3.53;;;32.30;1.00;;;;;;4393720;28;655805;-71
2021/10/03 13:59:26;;;;;;;5.90;3.95;;;33.30;1.00;;;;;;4391220;28;655438;-74
2021/10/03 14:02:16;;;;;;;6.10;4.22;;;34.50;1.00;;;;;;4412497;28;655571;-71
2021/10/03 14:05:04;;;;;;;10.73;4.07;;;36.00;99.90;;;;;;4393810;28;656354;-72
2021/10/03 14:07:51;;;;;;;8.55;3.90;;;36.70;99.90;;;;;;4378809;28;657849;-71
2021/10/03 14:10:39;;;;;;;6.63;3.75;;;37.30;99.90;;;;;;4406314;28;657123;-71
2021/10/03 14:13:27;;;;;;;5.73;3.90;;;37.50;99.90;;;;;;4394639;28;656625;-72
2021/10/03 14:16:14;;;;;;;13.07;4.22;;;37.20;99.90;;;;;;4417129;28;656541;-71
2021/10/03 14:19:03;;;;;;;11.98;4.10;;;37.50;99.90;;;;;;4392689;28;657696;-72
2021/10/03 14:21:51;;;;;;;9.82;4.05;;;37.40;99.90;;;;;;4392677;28;657443;-71